Time;durP1;ratioP1;P1;durP2;ratioP2;P2;SDS_P1;SDS_P2;PMS_P1;PMS_P2;Temp;Humidity;BMP_temperature;BMP_pressure;BME280_temperature;BME280_humidity;BME280_pressure;Samples;Min_cycle;Max_cycle;Signal;HPM_P1;HPM_P2
2021/11/22 00:00:20;;;;;;;23.13;9.15;;;;;;;0.83;99.18;102754.25;6132198;23;20068;-86
2021/11/22 00:02:46;;;;;;;23.42;8.20;;;;;;;0.82;99.06;102769.28;6131223;23;20075;-86
2021/11/22 00:05:14;;;;;;;17.65;7.07;;;;;;;0.75;98.95;102781.03;6157206;23;20300;-85
2021/11/22 00:07:40;;;;;;;14.73;6.47;;;;;;;0.68;99.52;102781.34;6154904;23;20023;-85
2021/11/22 00:10:06;;;;;;;21.00;6.20;;;;;;;0.70;100.00;102785.66;6106530;23;20017;-87
2021/11/22 00:12:33;;;;;;;26.48;7.75;;;;;;;0.71;100.00;102790.00;6132874;23;20005;-88
2021/11/22 00:15:02;;;;;;;22.38;7.43;;;;;;;0.74;100.00;102787.25;6132814;23;20081;-85
2021/11/22 00:17:28;;;;;;;18.45;7.40;;;;;;;0.70;100.00;102785.66;6133588;23;20447;-88
2021/11/22 00:19:53;;;;;;;23.90;6.55;;;;;;;0.62;99.99;102780.66;6157665;23;19997;-85
2021/11/22 00:22:19;;;;;;;19.95;5.82;;;;;;;0.54;99.77;102797.78;6157869;23;20005;-84
2021/11/22 00:24:44;;;;;;;11.93;4.25;;;;;;;0.46;100.00;102784.00;6157721;23;20286;-88
2021/11/22 00:27:12;;;;;;;18.02;9.25;;;;;;;0.40;100.00;102791.25;6133471;23;20083;-85
2021/11/22 00:29:38;;;;;;;17.13;8.73;;;;;;;0.36;100.00;102794.06;6109731;23;20038;-87
2021/11/22 00:32:05;;;;;;;29.98;11.43;;;;;;;0.34;100.00;102796.75;6132335;23;20329;-85
2021/11/22 00:34:32;;;;;;;31.92;15.23;;;;;;;0.37;100.00;102799.31;6108391;23;20001;-87
2021/11/22 00:36:58;;;;;;;22.40;10.10;;;;;;;0.38;100.00;102790.44;6133100;23;20017;-85
2021/11/22 00:39:23;;;;;;;22.13;7.90;;;;;;;0.49;100.00;102787.38;6157013;23;20128;-84
2021/11/22 00:41:49;;;;;;;17.88;8.35;;;;;;;0.51;100.00;102784.66;6157769;23;20001;-86
2021/11/22 00:44:15;;;;;;;23.30;8.93;;;;;;;0.50;100.00;102788.22;6132838;23;20011;-87
2021/11/22 00:46:43;;;;;;;29.95;12.80;;;;;;;0.41;100.00;102774.44;6156457;23;20084;-88
2021/11/22 00:49:09;;;;;;;26.10;10.10;;;;;;;0.46;100.00;102778.69;6158118;23;20001;-86
2021/11/22 00:51:34;;;;;;;30.40;11.50;;;;;;;0.44;100.00;102776.09;6132504;23;20012;-87
2021/11/22 00:54:00;;;;;;;14.32;5.88;;;;;;;0.44;100.00;102778.75;6108103;23;20079;-88
2021/11/22 00:56:28;;;;;;;23.48;7.45;;;;;;;0.42;100.00;102784.13;6157769;23;20008;-87
2021/11/22 00:58:53;;;;;;;14.52;5.63;;;;;;;0.39;100.00;102788.66;6183656;23;20059;-87
2021/11/22 01:01:19;;;;;;;14.85;5.75;;;;;;;0.35;100.00;102793.22;6157442;23;20025;-87
2021/11/22 01:03:44;;;;;;;11.32;3.75;;;;;;;0.30;100.00;102794.31;6132335;23;20011;-85
2021/11/22 01:06:11;;;;;;;9.68;4.00;;;;;;;0.29;100.00;102796.09;6132590;23;20020;-88
2021/11/22 01:08:36;;;;;;;12.60;3.50;;;;;;;0.21;100.00;102800.78;6157187;23;20365;-86
2021/11/22 01:11:02;;;;;;;8.75;3.60;;;;;;;0.25;100.00;102810.34;6158709;23;20004;-86
2021/11/22 01:13:28;;;;;;;8.48;3.38;;;;;;;0.21;100.00;102803.44;6185236;23;20028;-84
2021/11/22 01:15:54;;;;;;;15.00;3.72;;;;;;;0.15;100.00;102804.53;6158711;23;20009;-85
2021/11/22 01:18:19;;;;;;;12.60;3.70;;;;;;;0.12;100.00;102801.16;6109049;23;20357;-86
2021/11/22 01:20:45;;;;;;;12.65;4.50;;;;;;;0.07;100.00;102797.81;6134602;23;20066;-86
2021/11/22 01:23:13;;;;;;;12.60;4.13;;;;;;;-0.03;100.00;102806.13;6133548;23;20458;-87
2021/11/22 01:25:41;;;;;;;10.02;3.08;;;;;;;0.05;100.00;102812.88;6133906;23;20091;-86
2021/11/22 01:28:07;;;;;;;6.85;3.15;;;;;;;0.18;100.00;102808.84;6132196;23;20001;-88
2021/11/22 01:30:34;;;;;;;8.32;2.85;;;;;;;0.18;100.00;102806.22;6157320;23;20060;-86
2021/11/22 01:32:59;;;;;;;7.38;2.65;;;;;;;0.26;100.00;102808.56;6132365;23;20268;-87
2021/11/22 01:35:25;;;;;;;9.70;2.90;;;;;;;0.31;100.00;102796.03;6132187;23;20013;-85
2021/11/22 01:37:51;;;;;;;10.40;2.67;;;;;;;0.25;100.00;102798.91;6157646;23;20373;-88
2021/11/22 01:40:22;;;;;;;9.43;3.25;;;;;;;0.22;100.00;102805.19;6184206;23;20560;-86
2021/11/22 01:43:19;;;;;;;9.23;3.58;;;;;;;0.08;100.00;102800.44;6108700;23;20019;-85
2021/11/22 01:45:49;;;;;;;7.03;3.40;;;;;;;-0.08;100.00;102786.03;6110122;23;20029;-88
2021/11/22 01:48:17;;;;;;;11.45;3.38;;;;;;;-0.12;100.00;102792.38;6132673;23;20005;-87
2021/11/22 01:50:44;;;;;;;6.47;2.92;;;;;;;-0.11;100.00;102810.81;6133088;23;20331;-86
2021/11/22 01:53:15;;;;;;;13.18;3.67;;;;;;;-0.02;100.00;102813.13;6132784;23;20072;-86
2021/11/22 01:55:50;;;;;;;7.72;3.63;;;;;;;0.03;100.00;102820.00;6111795;23;20015;-86
2021/11/22 01:58:17;;;;;;;8.60;3.00;;;;;;;-0.08;100.00;102797.50;6135391;23;20063;-87
2021/11/22 02:00:49;;;;;;;11.75;3.17;;;;;;;0.07;100.00;102801.31;6135176;23;20096;-86
2021/11/22 02:03:15;;;;;;;6.65;2.47;;;;;;;0.01;100.00;102795.41;6185438;23;20008;-86
2021/11/22 02:05:42;;;;;;;6.63;3.20;;;;;;;0.15;100.00;102803.69;6134610;23;20009;-87
2021/11/22 02:08:08;;;;;;;7.00;3.05;;;;;;;0.03;100.00;102799.72;6109959;23;20019;-86
2021/11/22 02:10:35;;;;;;;8.75;4.05;;;;;;;0.05;100.00;102816.38;6158958;23;20309;-85
2021/11/22 02:13:01;;;;;;;11.70;4.28;;;;;;;0.06;100.00;102811.97;6108759;23;20009;-88
2021/11/22 02:15:27;;;;;;;7.38;2.92;;;;;;;0.11;100.00;102813.53;6158843;23;20031;-86
2021/11/22 02:17:53;;;;;;;9.18;3.15;;;;;;;0.04;100.00;102790.00;6160146;23;20005;-85
2021/11/22 02:20:23;;;;;;;10.52;3.53;;;;;;;0.09;100.00;102801.28;6158236;23;20012;-85
2021/11/22 02:22:52;;;;;;;6.40;2.25;;;;;;;0.06;100.00;102817.28;6157583;23;20004;-86
2021/11/22 02:25:20;;;;;;;7.13;2.78;;;;;;;-0.03;100.00;102832.56;6108742;23;20429;-86
2021/11/22 02:27:47;;;;;;;9.40;2.90;;;;;;;-0.08;100.00;102829.22;6109465;23;20009;-86
2021/11/22 02:30:14;;;;;;;10.65;3.40;;;;;;;-0.01;100.00;102833.34;6110273;23;20012;-88
2021/11/22 02:32:42;;;;;;;9.15;2.67;;;;;;;-0.01;100.00;102830.69;6108154;23;20036;-86
2021/11/22 02:35:11;;;;;;;9.23;2.92;;;;;;;0.00;100.00;102831.59;6157244;23;20498;-86
2021/11/22 02:37:37;;;;;;;10.02;3.00;;;;;;;-0.04;100.00;102806.16;6157076;23;20032;-87
2021/11/22 02:40:04;;;;;;;13.02;3.28;;;;;;;-0.05;100.00;102815.88;6157664;23;20453;-87
2021/11/22 02:42:32;;;;;;;9.48;3.28;;;;;;;-0.05;100.00;102826.47;6182964;23;20084;-85
2021/11/22 02:44:58;;;;;;;10.07;3.20;;;;;;;-0.01;100.00;102820.13;6157398;23;20032;-86
2021/11/22 02:47:24;;;;;;;11.10;2.38;;;;;;;0.06;100.00;102823.41;6108209;23;20016;-86
2021/11/22 02:49:50;;;;;;;16.10;3.22;;;;;;;0.06;100.00;102819.91;6156615;23;20009;-85
2021/11/22 02:52:16;;;;;;;9.05;2.95;;;;;;;0.13;100.00;102832.88;6107358;23;20195;-86
2021/11/22 02:54:42;;;;;;;12.52;2.60;;;;;;;0.13;100.00;102827.56;6157255;23;20011;-86
2021/11/22 02:57:09;;;;;;;13.60;3.28;;;;;;;0.17;100.00;102828.31;6156668;23;20005;-86
2021/11/22 02:59:39;;;;;;;13.98;3.38;;;;;;;0.08;100.00;102818.94;6156959;23;20009;-85
2021/11/22 03:02:20;;;;;;;10.80;2.60;;;;;;;0.10;100.00;102818.88;6157331;23;20005;-86
2021/11/22 03:04:46;;;;;;;8.63;2.35;;;;;;;0.05;100.00;102826.09;6109277;23;20036;-86
2021/11/22 03:07:12;;;;;;;6.82;2.50;;;;;;;-0.06;100.00;102826.50;6157325;23;20005;-86
2021/11/22 03:09:38;;;;;;;8.60;3.38;;;;;;;-0.18;100.00;102819.91;6132509;23;20005;-88
2021/11/22 03:12:10;;;;;;;9.95;3.13;;;;;;;-0.13;100.00;102825.88;6132597;23;20448;-86
2021/11/22 03:14:36;;;;;;;7.35;2.55;;;;;;;0.00;100.00;102823.66;6107286;23;20016;-87
2021/11/22 03:17:02;;;;;;;12.38;2.90;;;;;;;-0.05;100.00;102813.25;6131265;23;20088;-85
2021/11/22 03:19:28;;;;;;;5.13;2.22;;;;;;;-0.18;100.00;102814.59;6156530;23;20013;-86
2021/11/22 03:21:54;;;;;;;6.80;2.47;;;;;;;-0.21;100.00;102820.00;6132010;23;20013;-86
2021/11/22 03:24:20;;;;;;;12.85;3.30;;;;;;;-0.02;100.00;102829.00;6131946;23;20012;-85
2021/11/22 03:26:46;;;;;;;8.52;2.58;;;;;;;0.06;100.00;102820.78;6156839;23;20005;-87
2021/11/22 03:29:15;;;;;;;10.40;2.88;;;;;;;0.12;100.00;102825.81;6156651;23;20001;-85
2021/11/22 03:31:41;;;;;;;11.30;2.53;;;;;;;0.13;100.00;102837.25;6108394;23;20008;-87
2021/11/22 03:34:08;;;;;;;9.07;2.42;;;;;;;0.07;100.00;102837.50;6182689;23;20001;-86
2021/11/22 03:36:34;;;;;;;5.63;2.42;;;;;;;0.08;100.00;102844.50;6132118;23;20430;-85
2021/11/22 03:39:01;;;;;;;6.80;2.75;;;;;;;0.02;100.00;102836.81;6157184;23;20027;-85
2021/11/22 03:41:32;;;;;;;11.45;3.13;;;;;;;0.07;100.00;102835.72;6107595;23;20036;-87
2021/11/22 03:43:59;;;;;;;9.50;2.65;;;;;;;0.14;100.00;102833.72;6132290;23;19997;-85
2021/11/22 03:46:26;;;;;;;8.13;2.47;;;;;;;0.06;100.00;102833.16;6132767;23;20035;-87
2021/11/22 03:48:52;;;;;;;8.30;3.45;;;;;;;-0.10;100.00;102819.63;6131883;23;20013;-86
2021/11/22 03:51:19;;;;;;;6.95;2.08;;;;;;;-0.06;100.00;102835.28;6156234;23;20445;-86
2021/11/22 03:53:46;;;;;;;9.02;2.47;;;;;;;-0.10;100.00;102830.19;6132018;23;20012;-85
2021/11/22 03:56:12;;;;;;;7.28;2.60;;;;;;;-0.13;100.00;102838.22;6107735;23;20005;-86
2021/11/22 03:58:37;;;;;;;7.93;2.75;;;;;;;-0.16;100.00;102846.25;6157113;23;20035;-85
2021/11/22 04:01:03;;;;;;;11.43;2.78;;;;;;;-0.22;100.00;102840.28;6156493;23;20012;-86
2021/11/22 04:03:29;;;;;;;8.52;1.83;;;;;;;-0.24;100.00;102839.50;6156491;23;20012;-85
2021/11/22 04:05:55;;;;;;;5.05;2.13;;;;;;;-0.29;100.00;102845.84;6156207;23;20005;-86
2021/11/22 04:08:21;;;;;;;6.80;2.28;;;;;;;-0.32;100.00;102840.66;6131256;23;20084;-86
2021/11/22 04:10:47;;;;;;;9.48;2.55;;;;;;;-0.38;100.00;102846.16;6157090;23;20033;-85
2021/11/22 04:13:12;;;;;;;4.55;2.15;;;;;;;-0.39;100.00;102849.75;6155791;23;20009;-87
2021/11/22 04:15:38;;;;;;;7.38;1.90;;;;;;;-0.39;100.00;102855.03;6156095;23;20303;-86
2021/11/22 04:18:05;;;;;;;8.40;2.20;;;;;;;-0.49;100.00;102857.97;6131416;23;20075;-86
2021/11/22 04:20:31;;;;;;;9.45;3.03;;;;;;;-0.61;100.00;102844.31;6156458;23;20021;-87
2021/11/22 04:22:57;;;;;;;7.65;2.67;;;;;;;-0.61;100.00;102850.44;6107444;23;20067;-85
2021/11/22 04:25:23;;;;;;;9.75;2.28;;;;;;;-0.66;100.00;102849.78;6131427;23;20009;-85
2021/11/22 04:27:49;;;;;;;5.88;2.47;;;;;;;-0.71;100.00;102859.63;6131290;23;20020;-86
2021/11/22 04:30:15;;;;;;;7.65;2.70;;;;;;;-0.74;100.00;102868.53;6156193;23;20009;-87
2021/11/22 04:32:41;;;;;;;5.05;2.25;;;;;;;-0.76;100.00;102866.84;6156480;23;20005;-86
2021/11/22 04:35:08;;;;;;;11.10;3.03;;;;;;;-0.78;100.00;102860.75;6131744;23;20007;-86
2021/11/22 04:37:34;;;;;;;7.60;2.17;;;;;;;-0.72;100.00;102857.88;6106746;23;20016;-86
2021/11/22 04:40:00;;;;;;;5.90;2.70;;;;;;;-0.64;100.00;102860.28;6132242;23;20031;-84
2021/11/22 04:42:26;;;;;;;5.70;2.42;;;;;;;-0.65;100.00;102856.78;6131241;23;20497;-84
2021/11/22 04:44:52;;;;;;;13.68;1.95;;;;;;;-0.72;100.00;102861.38;6131610;23;20039;-86
2021/11/22 04:47:20;;;;;;;14.48;3.75;;;;;;;-0.83;100.00;102849.47;6131546;23;20111;-85
2021/11/22 04:49:53;;;;;;;15.90;4.70;;;;;;;-0.74;100.00;102855.31;6131558;23;20088;-87
2021/11/22 04:52:20;;;;;;;14.40;4.13;;;;;;;-0.71;100.00;102852.56;6131210;23;20020;-84
2021/11/22 04:54:46;;;;;;;8.85;2.70;;;;;;;-0.67;100.00;102858.59;6130848;23;20012;-87
2021/11/22 04:57:12;;;;;;;16.25;2.88;;;;;;;-0.71;100.00;102860.50;6155878;23;20333;-86
2021/11/22 04:59:38;;;;;;;5.78;2.67;;;;;;;-0.78;100.00;102855.47;6181563;23;20012;-86
2021/11/22 05:02:05;;;;;;;11.32;3.10;;;;;;;-0.86;100.00;102860.13;6132215;23;20005;-87
2021/11/22 05:04:31;;;;;;;8.25;3.20;;;;;;;-0.89;100.00;102867.22;6106916;23;20009;-85
2021/11/22 05:06:57;;;;;;;9.90;2.63;;;;;;;-0.90;100.00;102868.16;6131325;23;20008;-85
2021/11/22 05:09:23;;;;;;;10.43;3.28;;;;;;;-0.94;100.00;102870.94;6155939;23;20035;-85
2021/11/22 05:11:49;;;;;;;7.03;2.90;;;;;;;-0.99;100.00;102871.09;6131247;23;20005;-86
2021/11/22 05:14:16;;;;;;;16.13;4.18;;;;;;;-1.02;100.00;102876.47;6131158;23;20043;-87
2021/11/22 05:16:42;;;;;;;10.60;3.00;;;;;;;-1.06;100.00;102877.47;6182079;23;20063;-85
2021/11/22 05:19:08;;;;;;;10.93;3.28;;;;;;;-1.06;100.00;102888.03;6155560;23;20001;-87
2021/11/22 05:21:34;;;;;;;6.43;2.72;;;;;;;-1.09;100.00;102882.84;6156119;23;20019;-85
2021/11/22 05:24:00;;;;;;;8.95;3.05;;;;;;;-1.12;100.00;102875.03;6156397;23;20571;-85
2021/11/22 05:26:26;;;;;;;12.05;3.47;;;;;;;-1.15;100.00;102886.53;6131963;23;20005;-85
2021/11/22 05:28:52;;;;;;;7.15;3.15;;;;;;;-1.22;100.00;102890.28;6130791;23;20326;-85
2021/11/22 05:31:17;;;;;;;14.05;3.67;;;;;;;-1.32;100.00;102880.94;6131519;23;20020;-86
2021/11/22 05:33:43;;;;;;;9.55;2.95;;;;;;;-1.24;100.00;102899.19;6109007;23;20002;-86
2021/11/22 05:36:09;;;;;;;6.63;2.58;;;;;;;-1.30;100.00;102886.16;6157203;23;20013;-86
2021/11/22 05:38:35;;;;;;;9.30;2.90;;;;;;;-1.27;100.00;102884.31;6132880;23;20028;-88
2021/11/22 05:41:00;;;;;;;9.85;3.17;;;;;;;-1.29;100.00;102893.19;6184004;23;20032;-86
2021/11/22 05:43:26;;;;;;;12.07;3.30;;;;;;;-1.30;100.00;102896.72;6183812;23;20001;-86
2021/11/22 05:45:52;;;;;;;9.77;2.97;;;;;;;-1.27;100.00;102909.81;6157555;23;20261;-86
2021/11/22 05:48:19;;;;;;;9.38;2.75;;;;;;;-1.28;100.00;102897.53;6157455;23;20004;-87
2021/11/22 05:50:48;;;;;;;11.73;3.60;;;;;;;-1.30;100.00;102887.00;6183772;23;20433;-86
2021/11/22 05:53:13;;;;;;;13.63;3.55;;;;;;;-1.28;100.00;102885.19;6157278;23;20004;-84
2021/11/22 05:55:40;;;;;;;7.30;3.13;;;;;;;-1.41;100.00;102884.69;6108429;23;20005;-85
2021/11/22 05:58:11;;;;;;;8.50;2.88;;;;;;;-1.40;100.00;102889.09;6157730;23;20008;-85
2021/11/22 06:00:37;;;;;;;9.57;3.58;;;;;;;-1.46;100.00;102902.44;6132272;23;20005;-85
2021/11/22 06:03:04;;;;;;;9.07;3.33;;;;;;;-1.55;100.00;102895.66;6156766;23;20460;-86
2021/11/22 06:05:29;;;;;;;7.03;2.60;;;;;;;-1.52;100.00;102897.34;6133059;23;20001;-86
2021/11/22 06:07:55;;;;;;;10.25;3.38;;;;;;;-1.53;100.00;102900.91;6156400;23;20081;-86
2021/11/22 06:10:21;;;;;;;9.52;3.25;;;;;;;-1.71;100.00;102889.13;6157321;23;20041;-86
2021/11/22 06:12:46;;;;;;;7.32;3.20;;;;;;;-1.58;100.00;102916.00;6156827;23;20092;-85
2021/11/22 06:15:12;;;;;;;6.88;3.28;;;;;;;-1.56;100.00;102927.41;6157125;23;20032;-86
2021/11/22 06:17:40;;;;;;;11.10;3.10;;;;;;;-1.64;100.00;102913.53;6157300;23;20005;-85
2021/11/22 06:20:07;;;;;;;11.13;2.78;;;;;;;-1.62;100.00;102920.50;6157201;23;20021;-85
2021/11/22 06:22:33;;;;;;;13.20;2.67;;;;;;;-1.59;100.00;102932.72;6157236;23;20024;-85
2021/11/22 06:24:58;;;;;;;7.32;2.65;;;;;;;-1.71;100.00;102923.41;6107701;23;20009;-86
2021/11/22 06:27:25;;;;;;;12.77;3.13;;;;;;;-1.72;100.00;102918.16;6183399;23;20032;-85
2021/11/22 06:29:51;;;;;;;10.82;2.85;;;;;;;-1.70;100.00;102930.41;6132825;23;20318;-85
2021/11/22 06:32:17;;;;;;;7.70;2.67;;;;;;;-1.77;100.00;102927.09;6157510;23;20075;-85
2021/11/22 06:34:43;;;;;;;5.68;2.53;;;;;;;-1.82;100.00;102934.25;6156713;23;20001;-87
2021/11/22 06:37:09;;;;;;;3.33;2.22;;;;;;;-1.88;100.00;102936.19;6156690;23;20064;-86
2021/11/22 06:39:36;;;;;;;4.53;2.75;;;;;;;-1.88;100.00;102946.72;6108035;23;20009;-85
2021/11/22 06:42:03;;;;;;;9.10;3.63;;;;;;;-1.89;100.00;102966.97;6132645;23;20004;-85
2021/11/22 06:44:29;;;;;;;6.65;3.00;;;;;;;-1.91;100.00;102968.78;6132661;23;20019;-85
2021/11/22 06:46:54;;;;;;;7.97;3.00;;;;;;;-1.93;100.00;102959.16;6157215;23;20341;-86
2021/11/22 06:49:21;;;;;;;6.90;2.67;;;;;;;-1.87;100.00;102959.03;6132343;23;20009;-86
2021/11/22 06:51:47;;;;;;;7.72;2.65;;;;;;;-1.93;100.00;102949.53;6157253;23;20406;-85
2021/11/22 06:54:13;;;;;;;10.60;2.83;;;;;;;-1.88;100.00;102963.44;6157479;23;20068;-85
2021/11/22 06:56:39;;;;;;;12.27;2.65;;;;;;;-1.93;100.00;102967.97;6107932;23;20503;-84
2021/11/22 06:59:04;;;;;;;11.68;3.55;;;;;;;-1.94;100.00;102974.13;6157779;23;20359;-86
2021/11/22 07:01:30;;;;;;;10.55;2.67;;;;;;;-2.00;100.00;102961.13;6157961;23;20008;-85
2021/11/22 07:03:56;;;;;;;9.80;2.70;;;;;;;-1.98;100.00;102977.78;6157684;23;20096;-85
2021/11/22 07:06:22;;;;;;;7.13;2.70;;;;;;;-2.05;100.00;102968.28;6132377;23;20009;-85
2021/11/22 07:08:47;;;;;;;6.13;2.08;;;;;;;-2.09;100.00;102963.97;6133326;23;20005;-85
2021/11/22 07:11:13;;;;;;;7.15;3.05;;;;;;;-2.02;100.00;102976.09;6157417;23;20016;-85
2021/11/22 07:13:39;;;;;;;6.75;2.78;;;;;;;-2.07;100.00;102973.59;6156665;23;20011;-85
2021/11/22 07:16:05;;;;;;;5.60;2.65;;;;;;;-2.06;100.00;102971.84;6106152;23;20001;-85
2021/11/22 07:18:31;;;;;;;15.95;3.78;;;;;;;-2.07;100.00;102972.72;6154654;23;20108;-84
2021/11/22 07:20:57;;;;;;;5.43;2.53;;;;;;;-2.05;100.00;102982.31;6157493;23;20032;-85
2021/11/22 07:23:25;;;;;;;7.07;2.40;;;;;;;-2.03;100.00;102996.34;6132985;23;20333;-86
2021/11/22 07:25:52;;;;;;;8.88;2.90;;;;;;;-2.04;100.00;102991.09;6157609;23;20397;-85
2021/11/22 07:28:18;;;;;;;6.55;2.70;;;;;;;-2.04;100.00;102988.44;6157452;23;20008;-83
2021/11/22 07:30:44;;;;;;;8.15;2.45;;;;;;;-2.03;100.00;102998.97;6132988;23;20016;-83
2021/11/22 07:33:11;;;;;;;7.82;2.55;;;;;;;-2.15;100.00;102977.34;6132508;23;20005;-84
2021/11/22 07:35:37;;;;;;;12.75;3.00;;;;;;;-2.08;100.00;102994.72;6131078;23;20445;-87
2021/11/22 07:38:02;;;;;;;5.80;2.67;;;;;;;-2.10;100.00;102993.91;6157115;23;20007;-85
2021/11/22 07:40:28;;;;;;;4.63;2.47;;;;;;;-2.13;100.00;102997.47;6157509;23;20063;-84
2021/11/22 07:42:54;;;;;;;4.32;2.30;;;;;;;-2.09;100.00;103011.44;6157502;23;20024;-86
2021/11/22 07:45:21;;;;;;;6.35;2.20;;;;;;;-2.18;100.00;103001.13;6132570;23;20230;-85
2021/11/22 07:47:49;;;;;;;9.15;2.58;;;;;;;-2.20;100.00;103011.69;6156170;23;20016;-86
2021/11/22 07:50:15;;;;;;;6.18;2.13;;;;;;;-2.19;100.00;103016.09;6108592;23;20009;-84
2021/11/22 07:52:41;;;;;;;8.88;2.90;;;;;;;-2.21;100.00;103012.63;6157555;23;20101;-84
2021/11/22 07:55:07;;;;;;;5.93;2.40;;;;;;;-2.20;100.00;103003.78;6131647;23;20001;-85
2021/11/22 07:57:32;;;;;;;8.35;2.55;;;;;;;-2.21;100.00;103007.34;6132199;23;20266;-87
2021/11/22 07:59:58;;;;;;;5.05;2.42;;;;;;;-2.19;100.00;103005.53;6132926;23;20005;-87
2021/11/22 08:02:24;;;;;;;4.63;2.33;;;;;;;-2.18;100.00;103009.91;6132110;23;20013;-86
2021/11/22 08:04:50;;;;;;;15.05;2.72;;;;;;;-2.18;100.00;103009.03;6107791;23;20009;-86
2021/11/22 08:07:21;;;;;;;9.18;3.30;;;;;;;-2.18;100.00;103015.16;6157697;23;20010;-85
2021/11/22 08:09:57;;;;;;;6.95;2.40;;;;;;;-2.21;100.00;103016.09;6133366;23;20337;-85
2021/11/22 08:12:27;;;;;;;4.07;1.98;;;;;;;-2.18;100.00;103019.59;6132079;23;20016;-86
2021/11/22 08:14:55;;;;;;;6.80;2.60;;;;;;;-2.18;100.00;103011.69;6132532;23;20040;-83
2021/11/22 08:17:21;;;;;;;3.35;2.10;;;;;;;-2.16;100.00;103028.31;6156816;23;20337;-84
2021/11/22 08:19:46;;;;;;;7.15;2.28;;;;;;;-2.17;100.00;103021.31;6156449;23;20001;-85
2021/11/22 08:22:12;;;;;;;6.65;1.85;;;;;;;-2.10;100.00;103028.16;6132804;23;20076;-84
2021/11/22 08:24:38;;;;;;;9.32;2.72;;;;;;;-2.09;100.00;103029.88;6107430;23;20445;-85
2021/11/22 08:27:04;;;;;;;6.15;3.22;;;;;;;-2.03;100.00;103035.88;6131530;23;20005;-85
2021/11/22 08:29:30;;;;;;;11.13;2.97;;;;;;;-1.96;100.00;103035.72;6156502;23;20043;-84
2021/11/22 08:31:57;;;;;;;7.30;2.67;;;;;;;-1.94;100.00;103028.63;6157015;23;20080;-84
2021/11/22 08:34:23;;;;;;;3.83;1.98;;;;;;;-1.99;100.00;103029.59;6107475;23;20377;-86
2021/11/22 08:36:48;;;;;;;5.93;1.80;;;;;;;-1.95;100.00;103025.16;6156958;23;20040;-84
2021/11/22 08:39:14;;;;;;;6.88;2.35;;;;;;;-1.92;100.00;103029.47;6132020;23;20005;-83
2021/11/22 08:41:40;;;;;;;6.40;2.15;;;;;;;-1.86;100.00;103034.59;6132274;23;20360;-85
2021/11/22 08:44:06;;;;;;;7.07;2.92;;;;;;;-1.87;100.00;103033.72;6156072;23;20374;-84
2021/11/22 08:46:35;;;;;;;6.13;2.05;;;;;;;-1.85;100.00;103034.56;6132504;23;20008;-84
2021/11/22 08:49:02;;;;;;;4.88;2.05;;;;;;;-1.82;100.00;103036.25;6130807;23;20012;-84
2021/11/22 08:51:28;;;;;;;7.00;1.85;;;;;;;-1.80;100.00;103035.31;6105909;23;20020;-85
2021/11/22 08:53:54;;;;;;;4.05;1.60;;;;;;;-1.76;100.00;103033.44;6156532;23;20388;-85
2021/11/22 08:56:19;;;;;;;5.05;2.20;;;;;;;-1.75;100.00;103035.16;6131173;23;20005;-85
2021/11/22 08:58:46;;;;;;;13.63;2.47;;;;;;;-1.71;100.00;103042.09;6131207;23;20079;-86
2021/11/22 09:01:13;;;;;;;8.18;2.22;;;;;;;-1.76;100.00;103030.81;6132274;23;19997;-85
2021/11/22 09:03:39;;;;;;;6.97;2.55;;;;;;;-1.62;100.00;103055.03;6132023;23;20009;-85
2021/11/22 09:06:05;;;;;;;7.47;2.65;;;;;;;-1.58;100.00;103059.34;6182763;23;20409;-85
2021/11/22 09:08:30;;;;;;;8.65;2.78;;;;;;;-1.52;100.00;103060.94;6107395;23;20012;-84
2021/11/22 09:10:56;;;;;;;10.65;2.80;;;;;;;-1.41;100.00;103066.78;6132207;23;20009;-85
2021/11/22 09:13:22;;;;;;;12.63;3.92;;;;;;;-1.31;100.00;103070.03;6156367;23;20008;-84
2021/11/22 09:15:48;;;;;;;8.52;2.60;;;;;;;-1.23;100.00;103067.19;6131741;23;20035;-85
2021/11/22 09:18:14;;;;;;;13.75;4.63;;;;;;;-1.19;100.00;103060.91;6132102;23;20005;-84
2021/11/22 09:20:40;;;;;;;19.13;5.00;;;;;;;-1.03;100.00;103066.63;6131594;23;20090;-85
2021/11/22 09:23:06;;;;;;;21.90;5.00;;;;;;;-0.85;100.00;103067.88;6156895;23;20005;-85
2021/11/22 09:25:34;;;;;;;28.33;5.95;;;;;;;-0.72;100.00;103075.38;6181322;23;20024;-87
2021/11/22 09:28:01;;;;;;;20.73;5.15;;;;;;;-0.56;100.00;103072.28;6156692;23;20032;-84
2021/11/22 09:30:27;;;;;;;17.05;5.28;;;;;;;-0.41;100.00;103078.88;6107373;23;20092;-84
2021/11/22 09:32:53;;;;;;;21.58;5.78;;;;;;;-0.32;100.00;103073.28;6131890;23;20011;-85
2021/11/22 09:35:20;;;;;;;16.23;3.63;;;;;;;-0.22;100.00;103074.72;6131255;23;20033;-87
2021/11/22 09:37:46;;;;;;;11.13;4.38;;;;;;;-0.09;100.00;103080.50;6156112;23;20005;-85
2021/11/22 09:40:12;;;;;;;14.45;4.03;;;;;;;0.04;100.00;103078.31;6130340;23;20021;-86
2021/11/22 09:42:38;;;;;;;13.52;4.40;;;;;;;0.18;100.00;103084.00;6154588;23;20001;-87
2021/11/22 09:45:06;;;;;;;19.48;5.32;;;;;;;0.29;100.00;103073.94;6130859;23;20432;-88
2021/11/22 09:47:32;;;;;;;18.02;4.55;;;;;;;0.40;100.00;103078.88;6106978;23;20020;-85
2021/11/22 09:50:02;;;;;;;18.27;4.05;;;;;;;0.49;100.00;103077.66;6133133;23;20056;-86
2021/11/22 09:52:28;;;;;;;10.43;3.58;;;;;;;0.65;100.00;103081.50;6131797;23;20013;-86
2021/11/22 09:54:55;;;;;;;10.13;2.80;;;;;;;0.76;100.00;103087.28;6156220;23;20473;-86
2021/11/22 09:57:20;;;;;;;7.85;2.55;;;;;;;0.89;100.00;103090.34;6131812;23;20361;-86
2021/11/22 09:59:46;;;;;;;14.25;3.03;;;;;;;1.02;100.00;103085.47;6107695;23;20005;-86
2021/11/22 10:02:12;;;;;;;9.65;2.30;;;;;;;1.14;100.00;103092.09;6182753;23;20001;-87
2021/11/22 10:04:38;;;;;;;7.78;2.85;;;;;;;1.22;100.00;103075.00;6155698;23;20005;-86
2021/11/22 10:07:09;;;;;;;8.50;2.15;;;;;;;1.41;100.00;103085.75;6155186;23;20001;-86
2021/11/22 10:09:40;;;;;;;8.60;2.13;;;;;;;1.61;100.00;103100.88;6107029;23;20140;-85
2021/11/22 10:12:09;;;;;;;13.07;2.72;;;;;;;1.70;100.00;103083.75;6132147;23;20009;-85
2021/11/22 10:14:39;;;;;;;9.60;2.50;;;;;;;1.79;100.00;103088.66;6131256;23;20031;-85
2021/11/22 10:17:39;;;;;;;4.35;1.60;;;;;;;1.96;100.00;103094.19;6131831;23;20019;-85
2021/11/22 10:20:08;;;;;;;4.43;1.65;;;;;;;2.05;100.00;103098.22;6070627;23;20067;-86
2021/11/22 10:22:42;;;;;;;6.15;1.73;;;;;;;2.15;100.00;103093.41;6184580;23;20005;-85
2021/11/22 10:25:31;;;;;;;14.88;2.28;;;;;;;2.28;100.00;103102.59;6109198;23;20059;-84
2021/11/22 10:28:13;;;;;;;8.05;1.92;;;;;;;2.37;100.00;103106.66;6158538;23;20008;-86
2021/11/22 10:30:47;;;;;;;4.37;1.80;;;;;;;2.46;100.00;103098.31;6133368;23;20510;-85
2021/11/22 10:33:16;;;;;;;8.93;2.38;;;;;;;2.61;100.00;103104.72;6107776;23;20231;-87
2021/11/22 10:35:42;;;;;;;8.43;3.00;;;;;;;2.68;100.00;103098.22;6108479;23;20452;-87
2021/11/22 10:38:15;;;;;;;8.75;2.97;;;;;;;2.89;100.00;103112.38;6109086;23;20032;-86
2021/11/22 10:40:44;;;;;;;13.50;3.85;;;;;;;3.20;100.00;103105.66;6157751;23;20376;-86
2021/11/22 10:43:10;;;;;;;12.60;3.65;;;;;;;3.52;100.00;103107.69;6133837;23;20318;-85
2021/11/22 10:45:44;;;;;;;8.15;4.10;;;;;;;3.93;100.00;103107.50;6109365;23;20009;-86
2021/11/22 10:48:25;;;;;;;11.25;2.05;;;;;;;4.45;98.95;103106.69;6109017;23;20066;-86
2021/11/22 10:51:23;;;;;;;12.32;2.17;;;;;;;4.77;97.33;103105.03;6160916;23;20029;-84
2021/11/22 10:54:06;;;;;;;7.63;1.88;;;;;;;5.15;95.77;103099.44;6108504;23;20017;-87
2021/11/22 10:56:39;;;;;;;5.82;1.77;;;;;;;5.31;95.18;103087.94;6133095;23;20001;-88
2021/11/22 10:59:09;;;;;;;4.50;1.90;;;;;;;5.64;94.50;103095.91;6108777;23;20041;-86
2021/11/22 11:01:44;;;;;;;9.75;2.10;;;;;;;5.72;94.18;103097.19;6132766;23;20017;-85
2021/11/22 11:04:14;;;;;;;9.63;2.10;;;;;;;5.85;94.26;103101.84;6156692;23;20004;-86
2021/11/22 11:06:50;;;;;;;6.43;1.85;;;;;;;5.96;93.25;103107.44;6155994;23;20012;-87
2021/11/22 11:09:16;;;;;;;9.00;2.10;;;;;;;5.94;93.15;103104.84;6132455;23;20116;-87
2021/11/22 11:11:43;;;;;;;7.32;2.33;;;;;;;5.90;92.78;103102.41;6157885;23;20080;-87
2021/11/22 11:14:10;;;;;;;6.50;1.67;;;;;;;5.82;92.56;103097.53;6157598;23;20009;-87
2021/11/22 11:16:38;;;;;;;6.72;2.20;;;;;;;6.25;91.49;103097.75;6133170;23;20031;-85